Time;durP1;ratioP1;P1;durP2;ratioP2;P2;SDS_P1;SDS_P2;PMS_P1;PMS_P2;Temp;Humidity;BMP_temperature;BMP_pressure;BME280_temperature;BME280_humidity;BME280_pressure;Samples;Min_cycle;Max_cycle;Signal;HPM_P1;HPM_P2
2021/09/26 00:01:46;;;;;;;13.60;7.87;;;;;;;26.06;46.01;100199.22;4441649;32;20080;-69
2021/09/26 00:04:11;;;;;;;13.30;8.48;;;;;;;26.05;45.98;100192.66;4439746;32;20029;-69
2021/09/26 00:06:37;;;;;;;14.20;8.43;;;;;;;26.03;45.98;100191.66;4442592;32;20136;-69
2021/09/26 00:09:04;;;;;;;14.95;8.48;;;;;;;26.04;45.98;100193.22;4445448;32;20055;-69
2021/09/26 00:11:31;;;;;;;15.55;8.25;;;;;;;25.92;46.38;100192.66;4440293;32;20156;-69
2021/09/26 00:13:57;;;;;;;12.10;8.07;;;;;;;26.02;46.27;100190.91;4441177;32;20140;-69
2021/09/26 00:16:23;;;;;;;13.50;7.85;;;;;;;25.85;46.58;100189.69;4440830;32;20800;-69
2021/09/26 00:18:49;;;;;;;12.07;7.85;;;;;;;25.70;46.85;100180.84;4432684;32;20084;-69
2021/09/26 00:21:16;;;;;;;13.45;7.55;;;;;;;25.73;46.86;100180.53;4431713;32;20469;-70
2021/09/26 00:23:42;;;;;;;13.13;8.18;;;;;;;25.64;47.12;100178.09;4441617;32;20683;-69
2021/09/26 00:26:08;;;;;;;11.57;7.03;;;;;;;25.80;46.83;100173.31;4443640;32;20176;-70
2021/09/26 00:28:35;;;;;;;13.05;7.85;;;;;;;25.77;46.83;100168.66;4446141;32;20072;-69
2021/09/26 00:31:02;;;;;;;14.20;6.87;;;;;;;25.95;46.53;100177.13;4443229;32;20422;-69
2021/09/26 00:33:28;;;;;;;10.95;7.35;;;;;;;26.04;46.30;100175.91;4440964;32;20088;-69
2021/09/26 00:35:54;;;;;;;13.60;7.28;;;;;;;25.85;46.45;100176.06;4438142;32;20130;-69
2021/09/26 00:38:20;;;;;;;11.45;7.00;;;;;;;25.77;46.68;100169.41;4439931;32;20057;-69
2021/09/26 00:40:48;;;;;;;16.70;7.87;;;;;;;25.76;46.87;100169.97;4443121;32;20398;-69
2021/09/26 00:43:14;;;;;;;9.65;6.72;;;;;;;25.83;46.67;100169.31;4438495;32;20383;-69
2021/09/26 00:45:39;;;;;;;13.02;7.10;;;;;;;25.86;46.59;100171.09;4440333;32;20107;-69
2021/09/26 00:48:06;;;;;;;13.02;7.53;;;;;;;25.80;46.66;100173.31;4443851;32;20148;-69
2021/09/26 00:50:31;;;;;;;11.77;6.85;;;;;;;25.83;46.59;100166.44;4443642;32;20101;-69
2021/09/26 00:52:57;;;;;;;11.32;6.78;;;;;;;25.83;46.45;100170.06;4439596;32;20137;-69
2021/09/26 00:55:24;;;;;;;15.57;7.32;;;;;;;25.82;46.42;100168.53;4443870;32;20038;-69
2021/09/26 00:57:50;;;;;;;13.70;7.18;;;;;;;25.79;46.27;100169.66;4443709;32;20029;-69
2021/09/26 01:00:18;;;;;;;13.02;7.65;;;;;;;25.79;46.34;100171.75;4444737;32;20465;-69
2021/09/26 01:02:43;;;;;;;12.25;7.05;;;;;;;26.21;45.70;100173.41;4438934;32;20343;-70
2021/09/26 01:05:13;;;;;;;9.73;6.75;;;;;;;25.99;45.84;100168.19;4439091;32;20079;-70
2021/09/26 01:10:31;;;;;;;15.95;7.70;;;;;;;26.87;44.10;100175.41;3979764;32;15148652;-70
2021/09/26 01:13:15;;;;;;;13.02;7.20;;;;;;;26.87;44.10;100175.41;4435343;32;20099;-70
2021/09/26 01:21:14;;;;;;;13.90;7.90;;;;;;;26.95;44.00;100172.59;3983695;32;15022350;-68
2021/09/26 01:26:45;;;;;;;14.65;7.70;;;;;;;26.78;44.30;100167.25;3982172;32;15022416;-70
2021/09/26 01:29:50;;;;;;;12.43;7.70;;;;;;;26.69;44.58;100156.22;4434648;32;20056;-70
2021/09/26 01:32:19;;;;;;;13.67;7.80;;;;;;;26.73;44.38;100158.75;4434922;32;20038;-70
2021/09/26 01:34:49;;;;;;;12.43;7.93;;;;;;;26.60;44.94;100158.81;4434710;32;20047;-70
2021/09/26 01:40:00;;;;;;;15.18;7.75;;;;;;;27.18;44.14;100151.19;3954902;32;15724564;-70
2021/09/26 01:42:33;;;;;;;11.65;7.35;;;;;;;27.18;44.14;100151.19;4433138;32;20041;-70
2021/09/26 01:45:21;;;;;;;12.95;7.82;;;;;;;26.84;44.34;100149.78;4433862;32;20085;-70
2021/09/26 01:48:10;;;;;;;13.30;8.43;;;;;;;26.96;44.40;100154.69;4432090;32;20033;-70
2021/09/26 01:50:38;;;;;;;13.93;7.62;;;;;;;26.82;44.60;100149.59;4433065;32;20041;-70
2021/09/26 01:53:05;;;;;;;14.00;7.87;;;;;;;26.84;44.42;100144.78;4433518;32;20041;-70
2021/09/26 01:55:33;;;;;;;14.52;8.75;;;;;;;26.79;44.63;100151.47;4435107;32;20419;-70
2021/09/26 01:58:00;;;;;;;13.50;8.80;;;;;;;26.68;44.70;100146.00;4434734;32;20034;-70
2021/09/26 02:00:27;;;;;;;14.00;8.77;;;;;;;26.69;44.92;100141.78;4434261;32;20072;-70
2021/09/26 02:02:54;;;;;;;13.82;8.35;;;;;;;26.78;44.55;100140.50;4428667;32;20504;-70
2021/09/26 02:05:21;;;;;;;15.88;8.60;;;;;;;26.94;44.29;100148.72;4432652;32;20033;-70
2021/09/26 02:07:49;;;;;;;12.93;8.30;;;;;;;26.77;44.71;100144.72;4435320;32;20103;-70
2021/09/26 02:10:19;;;;;;;14.57;8.55;;;;;;;26.98;44.07;100139.69;4430262;32;20450;-70
2021/09/26 02:12:46;;;;;;;15.10;8.18;;;;;;;27.02;43.85;100138.00;4433195;32;20105;-70
2021/09/26 02:15:16;;;;;;;12.55;8.23;;;;;;;26.96;44.31;100130.81;4434363;32;20041;-70
2021/09/26 02:17:45;;;;;;;16.27;8.20;;;;;;;27.02;44.10;100137.22;4432477;32;20082;-70
2021/09/26 02:20:13;;;;;;;13.38;7.95;;;;;;;26.93;44.12;100137.72;4430035;32;20018;-70
2021/09/26 02:22:40;;;;;;;12.50;7.82;;;;;;;26.81;44.68;100124.94;4431142;32;20065;-70
2021/09/26 02:25:08;;;;;;;13.85;8.20;;;;;;;26.98;44.35;100131.81;4432445;32;20438;-70
2021/09/26 02:27:35;;;;;;;13.77;8.35;;;;;;;27.24;43.99;100122.16;4432420;32;20475;-70
2021/09/26 02:30:02;;;;;;;19.87;8.75;;;;;;;27.11;44.17;100128.03;4435114;32;20081;-69
2021/09/26 02:32:28;;;;;;;13.18;8.35;;;;;;;27.09;43.75;100125.72;4430848;32;20029;-70
2021/09/26 02:34:54;;;;;;;13.13;8.05;;;;;;;26.89;44.30;100117.09;4417998;32;20073;-69
2021/09/26 02:37:20;;;;;;;13.82;8.57;;;;;;;27.08;43.89;100121.28;4434815;32;20208;-69
2021/09/26 02:39:46;;;;;;;12.65;7.75;;;;;;;26.96;44.11;100110.59;4430314;32;20081;-69
2021/09/26 02:42:21;;;;;;;13.15;7.80;;;;;;;27.05;44.15;100110.88;4432100;32;20089;-69
2021/09/26 02:45:06;;;;;;;14.65;8.60;;;;;;;27.23;43.44;100115.59;4432399;32;20391;-69
2021/09/26 02:47:39;;;;;;;14.32;8.18;;;;;;;27.41;43.54;100113.78;4431878;32;20073;-69
2021/09/26 02:50:06;;;;;;;15.23;8.77;;;;;;;27.19;44.03;100114.41;4424548;32;20057;-69
2021/09/26 02:52:32;;;;;;;14.55;8.50;;;;;;;26.95;44.52;100112.72;4422870;32;20343;-70
2021/09/26 02:54:59;;;;;;;15.00;8.20;;;;;;;26.98;44.45;100111.59;4424733;32;20078;-70
2021/09/26 02:57:25;;;;;;;13.35;8.60;;;;;;;27.07;44.43;100113.97;4422504;32;20042;-69
2021/09/26 02:59:51;;;;;;;15.32;8.48;;;;;;;26.95;44.66;100106.16;4422254;32;20069;-69
2021/09/26 03:02:16;;;;;;;14.20;8.70;;;;;;;26.99;44.66;100107.34;4422006;32;20093;-69
2021/09/26 03:04:43;;;;;;;16.37;9.10;;;;;;;27.04;44.68;100112.22;4419469;32;20360;-69
2021/09/26 03:07:11;;;;;;;16.92;10.13;;;;;;;27.14;44.42;100104.56;4421437;32;20085;-69
2021/09/26 03:09:37;;;;;;;13.30;8.73;;;;;;;27.15;44.57;100099.53;4407488;32;20089;-69
2021/09/26 03:12:13;;;;;;;14.65;9.70;;;;;;;27.04;44.78;100094.09;4423015;32;20513;-69
2021/09/26 03:14:39;;;;;;;15.63;10.48;;;;;;;27.40;44.17;100092.03;4420496;32;20108;-69
2021/09/26 03:17:04;;;;;;;17.15;10.40;;;;;;;26.78;45.34;100097.19;4420323;32;20100;-69
2021/09/26 03:19:30;;;;;;;16.98;11.68;;;;;;;27.03;44.80;100081.75;4420409;32;20037;-69
2021/09/26 03:21:55;;;;;;;18.80;11.68;;;;;;;26.66;45.69;100084.44;4421391;32;21112;-69
2021/09/26 03:24:21;;;;;;;17.90;12.30;;;;;;;26.54;46.00;100086.03;4425465;32;20082;-69
2021/09/26 03:26:47;;;;;;;19.10;12.80;;;;;;;26.55;45.95;100082.56;4420466;32;20049;-69
2021/09/26 03:29:12;;;;;;;19.45;12.77;;;;;;;26.58;46.37;100080.66;4421760;32;21178;-69
2021/09/26 03:31:38;;;;;;;18.87;12.85;;;;;;;26.59;46.37;100082.19;4420773;32;20034;-69
2021/09/26 03:34:04;;;;;;;17.42;12.45;;;;;;;26.65;46.12;100074.19;4420907;32;20505;-70
2021/09/26 03:36:30;;;;;;;20.15;12.23;;;;;;;26.53;46.43;100070.81;4423289;32;20073;-69
2021/09/26 03:38:56;;;;;;;16.33;11.80;;;;;;;26.63;46.27;100062.47;4424044;32;20522;-69
2021/09/26 03:41:21;;;;;;;18.87;13.52;;;;;;;26.81;45.83;100064.28;4419728;32;20030;-69
2021/09/26 03:43:47;;;;;;;21.35;13.15;;;;;;;26.80;45.77;100057.78;4426462;32;20037;-69
2021/09/26 03:46:13;;;;;;;19.58;13.30;;;;;;;26.80;45.77;100054.88;4423372;32;20030;-69
2021/09/26 03:48:39;;;;;;;20.58;12.65;;;;;;;26.68;46.02;100050.75;4422959;32;20045;-69
2021/09/26 03:51:04;;;;;;;20.23;13.93;;;;;;;26.67;46.12;100055.00;4421155;32;20026;-69
2021/09/26 03:53:31;;;;;;;17.80;13.25;;;;;;;26.54;46.40;100046.38;4420780;32;20482;-69
2021/09/26 03:55:57;;;;;;;18.02;12.37;;;;;;;26.56;46.44;100045.81;4420509;32;20445;-69
2021/09/26 03:58:23;;;;;;;20.60;10.80;;;;;;;26.29;46.98;100045.22;4420383;32;20037;-69
2021/09/26 04:00:49;;;;;;;17.45;11.20;;;;;;;26.26;47.01;100043.47;4421043;32;20192;-69
2021/09/26 04:03:16;;;;;;;14.95;10.95;;;;;;;26.29;46.96;100047.34;4421465;32;20037;-69
2021/09/26 04:05:41;;;;;;;17.65;11.48;;;;;;;26.28;47.04;100043.69;4422570;32;20344;-69
2021/09/26 04:08:07;;;;;;;20.17;11.20;;;;;;;26.32;47.07;100032.56;4422448;32;20068;-69
2021/09/26 04:10:33;;;;;;;18.48;12.00;;;;;;;26.36;47.01;100035.09;4420054;32;20630;-69
2021/09/26 04:12:59;;;;;;;14.18;10.15;;;;;;;26.23;47.30;100033.06;4421955;32;20053;-69
2021/09/26 04:15:24;;;;;;;18.27;11.45;;;;;;;26.19;47.51;100034.75;4422677;32;20037;-69
2021/09/26 04:17:50;;;;;;;19.35;12.07;;;;;;;25.99;48.01;100027.69;4423294;32;20037;-69
2021/09/26 04:20:16;;;;;;;19.27;12.37;;;;;;;26.16;47.66;100035.88;4421158;32;20458;-69
2021/09/26 04:22:41;;;;;;;21.48;12.63;;;;;;;25.91;48.49;100029.69;4422662;32;20108;-69
2021/09/26 04:25:12;;;;;;;19.87;12.60;;;;;;;25.90;48.43;100028.13;4421812;32;21141;-69
2021/09/26 04:27:39;;;;;;;23.00;13.55;;;;;;;26.22;48.06;100022.88;4422505;32;20072;-69
2021/09/26 04:30:06;;;;;;;22.23;14.13;;;;;;;26.01;48.48;100027.13;4407034;32;20162;-69
2021/09/26 04:32:33;;;;;;;20.58;13.20;;;;;;;26.24;48.05;100025.19;4420343;32;20042;-70
2021/09/26 04:34:58;;;;;;;26.23;14.82;;;;;;;26.20;48.30;100031.31;4422114;32;20474;-69
2021/09/26 04:37:24;;;;;;;28.90;14.93;;;;;;;26.26;47.94;100034.06;4421797;32;20089;-69
2021/09/26 04:39:50;;;;;;;27.75;14.38;;;;;;;26.14;48.44;100038.56;4421831;32;20089;-69
2021/09/26 04:42:15;;;;;;;23.98;13.73;;;;;;;26.22;47.92;100034.41;4422340;32;20182;-69
2021/09/26 04:44:41;;;;;;;25.12;14.13;;;;;;;26.31;48.14;100033.13;4420598;32;20309;-69
2021/09/26 04:47:07;;;;;;;25.77;14.52;;;;;;;26.13;48.65;100020.47;4420988;32;20050;-69
2021/09/26 04:49:33;;;;;;;27.98;14.95;;;;;;;26.03;49.00;100028.09;4420742;32;20060;-69
2021/09/26 04:52:00;;;;;;;24.65;14.98;;;;;;;26.01;49.17;100019.22;4423127;32;20056;-69
2021/09/26 04:54:26;;;;;;;30.80;15.35;;;;;;;26.28;48.86;100022.72;4423316;32;20409;-69
2021/09/26 04:56:52;;;;;;;30.42;15.73;;;;;;;26.18;48.72;100024.56;4420392;32;20076;-69
2021/09/26 04:59:18;;;;;;;28.52;15.93;;;;;;;26.24;48.63;100028.84;4420415;32;20069;-69
2021/09/26 05:01:44;;;;;;;27.48;14.95;;;;;;;26.17;49.06;100018.00;4420610;32;20424;-69
2021/09/26 05:04:10;;;;;;;26.87;15.55;;;;;;;25.95;49.69;100020.69;4419307;32;20085;-69
2021/09/26 05:06:36;;;;;;;25.50;13.90;;;;;;;26.09;49.34;100016.41;4421287;32;20137;-69
2021/09/26 05:09:02;;;;;;;26.58;13.82;;;;;;;26.00;49.45;100011.13;4421402;32;20110;-69
2021/09/26 05:11:28;;;;;;;21.65;13.55;;;;;;;25.79;50.23;100011.09;4420757;32;20038;-69
2021/09/26 05:13:54;;;;;;;21.58;12.93;;;;;;;25.85;49.61;100026.16;4422398;32;20056;-69
2021/09/26 05:16:20;;;;;;;21.35;11.90;;;;;;;25.88;49.70;100030.81;4418324;32;20543;-69
2021/09/26 05:18:46;;;;;;;20.45;10.50;;;;;;;25.67;50.33;100030.00;4421417;32;20061;-69
2021/09/26 05:21:12;;;;;;;18.83;11.40;;;;;;;25.72;50.11;100026.22;4420907;32;20086;-70
2021/09/26 05:23:38;;;;;;;17.83;9.98;;;;;;;25.78;49.98;100026.09;4418054;32;20108;-69
2021/09/26 05:26:05;;;;;;;16.80;9.43;;;;;;;25.80;49.91;100029.19;4421073;32;20018;-70
2021/09/26 05:28:31;;;;;;;15.55;8.65;;;;;;;26.02;49.06;100035.22;4419968;32;20073;-70
2021/09/26 05:30:57;;;;;;;12.55;8.13;;;;;;;26.06;49.18;100035.62;4407644;32;20388;-69
2021/09/26 05:33:25;;;;;;;14.07;8.15;;;;;;;25.99;49.11;100033.44;4418020;32;20077;-69
2021/09/26 05:35:52;;;;;;;13.80;7.05;;;;;;;25.95;49.20;100035.84;4419353;32;20040;-69
2021/09/26 05:38:18;;;;;;;11.20;7.80;;;;;;;26.29;48.73;100038.69;4423184;32;20112;-69
2021/09/26 05:40:44;;;;;;;11.70;7.45;;;;;;;26.27;48.60;100036.38;4419969;32;20447;-69
2021/09/26 05:43:09;;;;;;;15.30;7.75;;;;;;;26.42;48.08;100036.47;4420221;32;20065;-68
2021/09/26 05:45:35;;;;;;;11.18;6.78;;;;;;;26.53;48.16;100041.19;4420819;32;20065;-68
2021/09/26 05:48:01;;;;;;;12.07;7.00;;;;;;;26.41;48.65;100039.94;4421819;32;20404;-68
2021/09/26 05:50:27;;;;;;;13.15;7.03;;;;;;;26.60;48.23;100043.38;4418739;32;20038;-69
2021/09/26 05:52:53;;;;;;;8.68;5.78;;;;;;;26.35;48.86;100031.44;4417293;32;20084;-68
2021/09/26 05:55:18;;;;;;;11.38;6.70;;;;;;;26.46;48.50;100034.03;4420085;32;20514;-68
2021/09/26 05:57:44;;;;;;;8.50;5.12;;;;;;;26.58;48.52;100032.38;4420714;32;20057;-68
2021/09/26 06:00:11;;;;;;;10.60;6.18;;;;;;;26.07;49.01;100027.72;4416986;32;20441;-68
2021/09/26 06:02:37;;;;;;;7.97;5.32;;;;;;;26.37;48.65;100027.97;4415774;32;20081;-68
2021/09/26 06:05:06;;;;;;;10.77;5.32;;;;;;;26.28;48.78;100031.38;4418808;32;20025;-68
2021/09/26 06:07:32;;;;;;;10.85;5.20;;;;;;;26.51;48.45;100024.44;4423094;32;20056;-68
2021/09/26 06:09:58;;;;;;;8.85;4.80;;;;;;;26.39;48.65;100028.97;4418407;32;20073;-68
2021/09/26 06:12:24;;;;;;;9.95;4.37;;;;;;;26.44;48.65;100035.91;4418125;32;20034;-68
2021/09/26 06:14:50;;;;;;;6.43;4.22;;;;;;;26.39;48.55;100034.75;4421544;32;20083;-68
2021/09/26 06:17:16;;;;;;;6.78;3.65;;;;;;;26.26;48.48;100043.47;4419715;32;20077;-68
2021/09/26 06:19:41;;;;;;;7.37;4.05;;;;;;;26.67;47.87;100031.13;4418224;32;20018;-68
2021/09/26 06:22:07;;;;;;;7.35;4.03;;;;;;;26.56;48.15;100042.94;4419905;32;20124;-69
2021/09/26 06:24:32;;;;;;;8.80;4.20;;;;;;;26.50;48.15;100043.09;4419549;32;20073;-68
2021/09/26 06:26:58;;;;;;;7.40;4.80;;;;;;;26.68;47.61;100033.44;4422229;32;20399;-68
2021/09/26 06:29:24;;;;;;;7.53;5.00;;;;;;;26.76;47.51;100034.28;4423609;32;20055;-68
2021/09/26 06:31:49;;;;;;;7.43;4.80;;;;;;;26.86;47.29;100031.62;4422931;32;20401;-68
2021/09/26 06:34:16;;;;;;;8.98;4.82;;;;;;;26.93;47.07;100022.22;4424742;32;20103;-69
2021/09/26 06:36:44;;;;;;;7.68;5.07;;;;;;;27.02;47.04;100033.25;4422714;32;20049;-68
2021/09/26 06:39:11;;;;;;;7.95;5.35;;;;;;;26.83;47.27;100042.19;4422551;32;20492;-68
2021/09/26 06:41:37;;;;;;;10.13;6.47;;;;;;;26.86;47.07;100038.16;4422141;32;20081;-68
2021/09/26 06:44:03;;;;;;;9.90;6.15;;;;;;;26.82;46.89;100043.50;4422070;32;20026;-68
2021/09/26 06:46:29;;;;;;;10.35;5.93;;;;;;;26.91;46.65;100048.00;4422869;32;20386;-68
2021/09/26 06:48:54;;;;;;;10.85;6.30;;;;;;;26.97;46.39;100049.38;4423878;32;20839;-68
2021/09/26 06:51:20;;;;;;;10.25;6.97;;;;;;;26.79;46.88;100046.78;4420224;32;20048;-69
2021/09/26 06:53:46;;;;;;;12.52;7.28;;;;;;;26.88;46.42;100040.50;4419617;32;20565;-69
2021/09/26 06:56:12;;;;;;;11.57;7.65;;;;;;;26.74;46.38;100044.81;4423825;32;20034;-69
2021/09/26 06:58:38;;;;;;;13.50;8.13;;;;;;;26.89;46.11;100042.81;4419918;32;20566;-69
2021/09/26 07:01:04;;;;;;;14.68;9.10;;;;;;;26.65;46.15;100056.88;4421458;32;20030;-69
2021/09/26 07:03:29;;;;;;;15.45;8.80;;;;;;;26.59;46.35;100054.13;4420492;32;20090;-68
2021/09/26 07:05:55;;;;;;;15.13;9.90;;;;;;;26.72;46.32;100056.19;4422475;32;20057;-68
2021/09/26 07:08:21;;;;;;;14.75;10.07;;;;;;;26.71;45.87;100061.16;4425013;32;20027;-68
2021/09/26 07:10:47;;;;;;;15.98;10.55;;;;;;;26.68;46.35;100059.41;4420683;32;20029;-68
2021/09/26 07:13:12;;;;;;;18.37;10.90;;;;;;;26.78;45.85;100066.22;4421465;32;20009;-68
2021/09/26 07:15:38;;;;;;;17.67;11.18;;;;;;;26.35;46.47;100066.06;4423301;32;20434;-68
2021/09/26 07:18:04;;;;;;;17.05;11.93;;;;;;;26.24;46.44;100071.34;4422336;32;20404;-68
2021/09/26 07:20:29;;;;;;;17.75;11.10;;;;;;;26.18;46.56;100074.37;4407278;32;20045;-68
2021/09/26 07:22:57;;;;;;;18.33;12.02;;;;;;;26.41;45.68;100068.78;4424253;32;20065;-68
2021/09/26 07:25:23;;;;;;;18.73;12.15;;;;;;;26.39;45.90;100072.25;4421711;32;20040;-68
2021/09/26 07:27:50;;;;;;;17.10;10.98;;;;;;;26.31;45.73;100068.53;4421933;32;20134;-68
2021/09/26 07:30:16;;;;;;;18.73;11.68;;;;;;;26.29;45.76;100059.66;4421184;32;20446;-68
2021/09/26 07:32:42;;;;;;;15.82;10.50;;;;;;;26.04;45.50;100063.44;4423418;32;20069;-68
2021/09/26 07:35:08;;;;;;;17.20;11.23;;;;;;;26.11;45.42;100063.53;4424266;32;20057;-68
2021/09/26 07:37:34;;;;;;;14.95;9.80;;;;;;;26.40;44.89;100065.13;4420713;32;20073;-69
2021/09/26 07:39:59;;;;;;;15.82;10.38;;;;;;;26.64;44.20;100056.12;4419885;32;20071;-69
2021/09/26 07:42:25;;;;;;;16.50;10.15;;;;;;;26.55;44.12;100064.47;4422279;32;21553;-69
2021/09/26 07:44:51;;;;;;;17.27;10.25;;;;;;;26.39;43.82;100057.06;4423351;32;20034;-69
2021/09/26 07:47:16;;;;;;;14.25;9.25;;;;;;;26.36;43.62;100061.06;4419579;32;20029;-69
2021/09/26 07:49:42;;;;;;;15.48;9.68;;;;;;;26.49;43.45;100064.63;4421548;32;20038;-69
2021/09/26 07:52:08;;;;;;;14.68;9.38;;;;;;;26.39;43.37;100066.50;4423058;32;20542;-69
2021/09/26 07:54:34;;;;;;;12.93;9.27;;;;;;;26.22;43.10;100074.78;4423159;32;20077;-69
2021/09/26 07:57:00;;;;;;;15.40;9.25;;;;;;;26.08;43.20;100066.78;4419702;32;20405;-69
2021/09/26 07:59:26;;;;;;;14.73;9.27;;;;;;;26.13;42.68;100065.84;4420150;32;20136;-69
2021/09/26 08:01:53;;;;;;;14.60;9.55;;;;;;;26.40;42.07;100081.66;4419946;32;20128;-69
2021/09/26 08:04:18;;;;;;;17.67;11.27;;;;;;;25.81;43.23;100079.72;4424164;32;20070;-69
2021/09/26 08:06:44;;;;;;;19.58;10.65;;;;;;;25.68;43.65;100068.25;4419133;32;20542;-69
2021/09/26 08:09:10;;;;;;;15.02;10.52;;;;;;;25.74;43.77;100077.53;4420330;32;20021;-69
2021/09/26 08:11:36;;;;;;;19.42;11.18;;;;;;;25.47;44.49;100078.94;4419403;32;20128;-69
2021/09/26 08:14:02;;;;;;;14.50;10.18;;;;;;;25.63;44.37;100083.56;4420110;32;20062;-69
2021/09/26 08:16:28;;;;;;;15.75;11.57;;;;;;;25.63;44.37;100087.22;4421967;32;20070;-69
2021/09/26 08:18:53;;;;;;;15.80;10.85;;;;;;;25.55;44.40;100079.81;4421012;32;20076;-69
2021/09/26 08:21:19;;;;;;;17.52;11.38;;;;;;;25.53;44.69;100082.47;4408433;32;20459;-69
2021/09/26 08:23:45;;;;;;;17.50;10.63;;;;;;;25.30;44.73;100091.59;4421352;32;21122;-69
2021/09/26 08:26:11;;;;;;;13.05;9.32;;;;;;;25.62;43.66;100082.00;4420389;32;20452;-69
2021/09/26 08:28:36;;;;;;;13.65;9.20;;;;;;;25.32;43.19;100083.19;4422161;32;20122;-69
2021/09/26 08:31:02;;;;;;;14.18;9.73;;;;;;;25.24;42.85;100084.37;4421275;32;20136;-69
2021/09/26 08:33:28;;;;;;;13.00;9.48;;;;;;;25.66;42.25;100091.87;4418644;32;20029;-69
2021/09/26 08:35:54;;;;;;;12.68;9.45;;;;;;;25.67;41.76;100089.78;4417331;32;20468;-69
2021/09/26 08:38:19;;;;;;;16.70;9.88;;;;;;;26.13;40.73;100086.03;4418175;32;20026;-69
2021/09/26 08:40:47;;;;;;;13.68;9.18;;;;;;;26.20;40.13;100086.09;4420206;32;20367;-69
2021/09/26 08:43:18;;;;;;;11.48;8.80;;;;;;;26.40;39.70;100079.56;4423323;32;20104;-69
2021/09/26 08:45:44;;;;;;;12.88;9.45;;;;;;;26.90;38.54;100084.78;4422966;32;20050;-69
2021/09/26 08:48:11;;;;;;;15.07;10.25;;;;;;;26.82;38.48;100077.41;4419782;32;20136;-69
2021/09/26 08:50:37;;;;;;;13.77;9.93;;;;;;;27.00;38.02;100082.16;4419776;32;20099;-69
2021/09/26 08:53:04;;;;;;;13.80;9.18;;;;;;;26.87;38.43;100099.56;4418967;32;20101;-69
2021/09/26 08:55:33;;;;;;;16.83;9.95;;;;;;;27.42;37.60;100106.66;4420083;32;20512;-69
2021/09/26 08:57:59;;;;;;;14.18;10.30;;;;;;;27.29;37.71;100106.00;4417835;32;20069;-69
2021/09/26 09:00:26;;;;;;;15.55;10.32;;;;;;;26.83;38.70;100111.50;4415411;32;20089;-69
2021/09/26 09:02:53;;;;;;;16.40;11.15;;;;;;;26.78;38.66;100095.09;4420819;32;20074;-69
2021/09/26 09:05:39;;;;;;;16.92;11.88;;;;;;;26.91;38.39;100115.19;4419318;32;20484;-69
2021/09/26 09:08:15;;;;;;;16.77;11.82;;;;;;;27.03;38.08;100115.66;4421694;32;20087;-69
2021/09/26 09:13:19;;;;;;;18.37;11.88;;;;;;;26.39;39.11;100112.66;3983699;32;15024495;-70
2021/09/26 09:16:04;;;;;;;17.62;12.07;;;;;;;26.39;39.11;100112.66;4431538;32;20521;-70
2021/09/26 09:21:32;;;;;;;13.77;9.90;;;;;;;27.30;36.62;100105.44;3981363;32;15023270;-68
2021/09/26 09:24:25;;;;;;;16.55;11.43;;;;;;;27.30;36.62;100105.44;4438938;32;20101;-69
2021/09/26 09:26:53;;;;;;;18.58;11.30;;;;;;;26.67;37.44;100109.84;4437120;32;20072;-69
2021/09/26 09:29:23;;;;;;;14.93;10.60;;;;;;;26.54;37.75;100103.34;4434776;32;20037;-69
2021/09/26 09:31:52;;;;;;;14.20;9.68;;;;;;;26.57;37.55;100105.09;4434484;32;20037;-69
2021/09/26 09:34:40;;;;;;;14.23;9.68;;;;;;;26.96;36.62;100101.94;4436691;32;20080;-69
2021/09/26 09:40:15;;;;;;;14.20;8.55;;;;;;;28.41;34.79;100105.59;3996692;31;15016435;-70
2021/09/26 09:42:47;;;;;;;15.05;9.38;;;;;;;28.41;34.79;100105.59;4456201;32;20076;-70
2021/09/26 09:45:32;;;;;;;16.90;9.05;;;;;;;27.93;35.05;100101.66;4460724;32;20040;-70
2021/09/26 09:56:17;;;;;;;12.70;8.77;;;;;;;28.19;33.99;100112.91;3979291;32;15022494;-69
2021/09/26 09:58:49;;;;;;;13.52;9.13;;;;;;;28.19;33.99;100112.91;4433719;32;20330;-69
2021/09/26 10:01:33;;;;;;;13.10;8.18;;;;;;;27.98;34.34;100103.59;4438220;32;20025;-69
2021/09/26 10:04:02;;;;;;;12.85;9.20;;;;;;;28.52;33.35;100096.53;4438932;32;20082;-69
2021/09/26 10:14:29;;;;;;;13.52;7.65;;;;;;;29.03;32.97;100103.62;3967745;32;15025217;-69
2021/09/26 10:16:57;;;;;;;10.35;7.22;;;;;;;29.03;32.97;100103.62;4424079;32;20069;-69
2021/09/26 10:19:25;;;;;;;14.65;7.10;;;;;;;28.89;33.15;100099.41;4421942;32;20114;-69
2021/09/26 10:21:54;;;;;;;9.88;7.28;;;;;;;29.09;32.74;100088.97;4420048;32;20070;-69
2021/09/26 10:24:22;;;;;;;12.90;7.00;;;;;;;29.44;32.30;100111.09;4422464;32;20097;-70
2021/09/26 10:26:48;;;;;;;10.55;7.80;;;;;;;29.34;32.46;100097.78;4416346;32;20081;-69
2021/09/26 10:29:17;;;;;;;11.63;7.55;;;;;;;29.49;32.37;100101.41;4419082;32;20026;-69
2021/09/26 10:31:46;;;;;;;10.10;7.55;;;;;;;30.01;31.64;100080.09;4420188;32;20022;-69
2021/09/26 10:34:13;;;;;;;12.63;8.10;;;;;;;30.02;31.40;100080.84;4425802;32;20075;-69
2021/09/26 10:36:41;;;;;;;10.75;7.30;;;;;;;29.77;31.32;100074.22;4421558;32;20069;-69
2021/09/26 10:39:08;;;;;;;11.00;7.05;;;;;;;29.44;32.04;100081.31;4423254;32;20092;-69
2021/09/26 10:41:35;;;;;;;12.20;8.18;;;;;;;29.04;32.93;100087.06;4419825;32;20374;-69
2021/09/26 10:44:22;;;;;;;14.60;8.15;;;;;;;28.63;33.44;100093.28;4420898;32;20227;-69
2021/09/26 10:47:07;;;;;;;14.45;8.85;;;;;;;28.56;33.73;100091.91;4422690;32;20037;-71
2021/09/26 10:49:39;;;;;;;15.07;8.02;;;;;;;28.22;34.65;100100.16;4421780;32;20058;-72
2021/09/26 11:05:43;;;;;;;14.20;9.23;;;;;;;29.29;32.58;100096.62;4001483;31;15022215;-71
2021/09/26 11:08:13;;;;;;;14.35;8.10;;;;;;;29.29;32.58;100096.62;4454399;32;20124;-71
2021/09/26 11:10:46;;;;;;;14.50;9.07;;;;;;;29.29;32.75;100087.19;4454383;32;20073;-71
2021/09/26 11:13:16;;;;;;;12.82;7.30;;;;;;;28.98;33.11;100069.84;4455392;32;20045;-70
2021/09/26 11:15:58;;;;;;;17.67;9.45;;;;;;;29.47;32.50;100088.84;4454878;32;20322;-71
2021/09/26 11:18:52;;;;;;;11.48;8.38;;;;;;;29.44;32.18;100090.78;4455128;32;20101;-71
2021/09/26 11:34:57;;;;;;;10.80;6.72;;;;;;;32.05;28.50;100084.56;3982485;32;15023128;-71
2021/09/26 11:40:17;;;;;;;10.10;6.32;;;;;;;31.67;28.45;100079.28;3980076;32;15023932;-69
2021/09/26 11:42:51;;;;;;;10.45;5.95;;;;;;;32.11;28.02;100071.28;4433959;32;20397;-69
2021/09/26 11:45:20;;;;;;;9.05;6.50;;;;;;;32.75;27.49;100072.00;4431759;32;21175;-69
2021/09/26 11:48:08;;;;;;;13.48;6.15;;;;;;;33.05;26.81;100075.16;4432473;32;20501;-69
2021/09/26 11:50:36;;;;;;;10.25;6.20;;;;;;;33.32;26.42;100066.28;4432586;32;20061;-69
2021/09/26 11:53:03;;;;;;;12.32;6.22;;;;;;;32.22;27.35;100081.63;4429380;32;20407;-69
2021/09/26 11:55:31;;;;;;;8.15;5.30;;;;;;;31.51;28.49;100074.25;4431624;32;20095;-69
2021/09/26 11:57:59;;;;;;;8.43;5.15;;;;;;;32.29;27.73;100064.03;4431157;32;20081;-70
2021/09/26 12:00:30;;;;;;;9.18;5.12;;;;;;;32.91;27.16;100071.13;4434979;32;20091;-69
2021/09/26 12:02:56;;;;;;;10.75;5.70;;;;;;;33.01;26.75;100069.00;4434142;32;20073;-70
2021/09/26 12:05:39;;;;;;;8.13;5.78;;;;;;;32.44;27.31;100077.59;4429049;32;20064;-69
2021/09/26 12:08:05;;;;;;;7.90;5.30;;;;;;;32.13;28.37;100080.19;4430373;32;20459;-70
2021/09/26 12:10:32;;;;;;;8.10;5.40;;;;;;;32.91;27.21;100074.06;4433475;32;20069;-69
2021/09/26 12:12:59;;;;;;;9.00;5.10;;;;;;;33.47;26.41;100057.22;4434042;32;20100;-70
2021/09/26 12:15:27;;;;;;;7.75;5.10;;;;;;;33.68;26.27;100054.44;4432197;32;20035;-70
2021/09/26 12:17:56;;;;;;;6.10;4.75;;;;;;;33.98;25.79;100068.38;4434625;32;20565;-70
2021/09/26 12:20:23;;;;;;;8.93;4.93;;;;;;;34.28;25.42;100073.50;4433103;32;20073;-72
2021/09/26 12:22:58;;;;;;;9.07;5.30;;;;;;;34.73;24.77;100069.47;4433104;32;20085;-69
2021/09/26 12:28:08;;;;;;;8.48;4.93;;;;;;;34.85;24.93;100060.75;3981768;32;15137411;-70
2021/09/26 12:33:33;;;;;;;10.02;5.22;;;;;;;34.99;24.89;100067.59;3984227;32;15022688;-69